createdAt,value
2023-02-23T00:01:29.405Z,56.50
2023-02-23T00:03:59.460Z,56.10
2023-02-23T00:06:30.926Z,47.10
2023-02-23T00:09:01.833Z,50.30
2023-02-23T00:11:30.526Z,54.50
2023-02-23T00:14:01.488Z,57.10
2023-02-23T00:16:31.298Z,46.80
2023-02-23T00:19:00.750Z,47.40
2023-02-23T00:21:35.269Z,61.90
2023-02-23T00:24:08.611Z,54.30
2023-02-23T00:26:39.619Z,53.30
2023-02-23T00:29:18.464Z,51.50
2023-02-23T00:31:48.155Z,53.50
2023-02-23T00:34:21.414Z,47.10
2023-02-23T00:36:54.744Z,50.70
2023-02-23T00:39:29.584Z,54.10
2023-02-23T00:42:03.667Z,49.50
2023-02-23T00:44:34.438Z,50.60
2023-02-23T00:47:04.811Z,49.90
2023-02-23T00:49:34.474Z,57.60
2023-02-23T00:52:05.724Z,55.80
2023-02-23T00:54:35.131Z,52.70
2023-02-23T00:57:03.709Z,48.70
2023-02-23T00:59:33.030Z,54.70
2023-02-23T01:02:02.499Z,55.30
2023-02-23T01:04:31.212Z,47.40
2023-02-23T01:07:00.120Z,52.60
2023-02-23T01:09:29.900Z,52.40
2023-02-23T01:12:02.190Z,49.40
2023-02-23T01:14:31.536Z,47.00
2023-02-23T01:17:00.584Z,46.40
2023-02-23T01:19:29.288Z,52.90
2023-02-23T01:21:58.179Z,45.80
2023-02-23T01:24:26.735Z,53.60
2023-02-23T01:26:58.561Z,51.90
2023-02-23T01:29:28.922Z,50.20
2023-02-23T01:31:57.547Z,55.90
2023-02-23T01:34:26.254Z,48.80
2023-02-23T01:36:55.493Z,52.20
2023-02-23T01:39:29.721Z,49.10
2023-02-23T01:44:31.613Z,59.50
2023-02-23T01:47:00.577Z,50.20
2023-02-23T01:49:35.214Z,50.80
2023-02-23T01:52:15.130Z,58.20
2023-02-23T01:54:51.675Z,51.30
2023-02-23T01:57:25.248Z,56.00
2023-02-23T01:59:55.936Z,61.60
2023-02-23T02:02:34.029Z,62.50
2023-02-23T02:05:05.840Z,55.40
2023-02-23T02:07:35.644Z,60.30
2023-02-23T02:10:13.506Z,65.40
2023-02-23T02:12:52.191Z,60.50
2023-02-23T02:15:26.608Z,66.70
2023-02-23T02:18:24.143Z,63.20
2023-02-23T02:21:08.165Z,69.30
2023-02-23T02:23:59.310Z,70.90
2023-02-23T02:26:45.835Z,63.10
2023-02-23T02:29:47.364Z,58.10
2023-02-23T02:32:45.001Z,63.60
2023-02-23T02:35:19.219Z,62.90
2023-02-23T02:37:57.795Z,54.80
2023-02-23T02:40:53.601Z,63.10
2023-02-23T02:43:54.965Z,57.30
2023-02-23T02:46:30.995Z,61.80
2023-02-23T02:49:12.722Z,68.00
2023-02-23T02:51:49.450Z,63.10
2023-02-23T02:54:37.630Z,56.00
2023-02-23T02:57:08.058Z,62.40
2023-02-23T03:00:06.669Z,63.90
2023-02-23T03:02:57.635Z,60.90
2023-02-23T03:05:50.930Z,56.50
2023-02-23T03:09:07.146Z,57.80
2023-02-23T03:12:12.277Z,68.90
2023-02-23T03:15:18.977Z,63.80
2023-02-23T03:18:28.196Z,63.60
2023-02-23T03:21:22.631Z,62.00
2023-02-23T03:24:27.921Z,62.10
2023-02-23T03:27:55.285Z,66.50
2023-02-23T03:30:55.449Z,68.30
2023-02-23T03:33:55.706Z,58.60
2023-02-23T03:36:50.206Z,61.00
2023-02-23T03:40:18.967Z,62.90
2023-02-23T03:43:11.167Z,68.30
2023-02-23T03:46:00.358Z,66.00
2023-02-23T03:48:50.426Z,63.20
2023-02-23T03:54:37.843Z,65.30
2023-02-23T03:57:30.231Z,58.90
2023-02-23T04:00:22.852Z,66.20
2023-02-23T04:03:12.334Z,59.70
2023-02-23T04:06:01.243Z,49.90
2023-02-23T04:08:56.405Z,71.40
2023-02-23T04:11:53.481Z,63.10
2023-02-23T04:14:40.108Z,62.90
2023-02-23T04:17:10.437Z,59.80
2023-02-23T04:19:39.415Z,67.10
2023-02-23T04:22:08.066Z,65.00
2023-02-23T04:24:36.837Z,63.90
2023-02-23T04:27:06.649Z,60.00
2023-02-23T04:29:39.188Z,62.80
2023-02-23T04:34:42.758Z,63.50
2023-02-23T04:37:12.332Z,57.40
2023-02-23T04:39:40.993Z,47.00
2023-02-23T04:42:10.612Z,74.90
2023-02-23T04:44:39.888Z,59.40
2023-02-23T04:47:08.481Z,63.80
2023-02-23T04:49:37.241Z,62.10
2023-02-23T04:52:07.041Z,59.60
2023-02-23T04:54:41.176Z,72.80
2023-02-23T04:57:10.709Z,69.40
2023-02-23T04:59:39.308Z,61.50
2023-02-23T05:02:08.501Z,76.70
2023-02-23T05:04:37.627Z,71.30
2023-02-23T05:07:06.345Z,52.50
2023-02-23T05:09:35.464Z,59.60
2023-02-23T05:12:04.305Z,66.50
2023-02-23T05:14:32.946Z,95.10
2023-02-23T05:17:01.648Z,77.70
2023-02-23T05:19:30.474Z,76.10
2023-02-23T05:21:59.346Z,71.40
2023-02-23T05:24:28.294Z,66.20
2023-02-23T05:26:57.121Z,60.80
2023-02-23T05:29:25.750Z,60.80
2023-02-23T05:31:55.142Z,74.90
2023-02-23T05:34:24.459Z,68.80
2023-02-23T05:36:54.558Z,92.70
2023-02-23T05:41:52.987Z,83.00
2023-02-23T05:44:21.562Z,73.20
2023-02-23T05:46:50.263Z,70.00
2023-02-23T05:49:19.477Z,60.50
2023-02-23T05:51:47.977Z,69.30
2023-02-23T05:54:17.032Z,69.70
2023-02-23T05:56:46.393Z,70.70
2023-02-23T05:59:18.002Z,73.50
2023-02-23T06:01:47.234Z,63.10
2023-02-23T06:04:16.021Z,68.80
2023-02-23T06:06:45.468Z,64.20
2023-02-23T06:09:14.534Z,64.80
2023-02-23T06:11:43.181Z,74.50
2023-02-23T06:14:12.378Z,77.30
2023-02-23T06:16:41.779Z,80.60
2023-02-23T06:19:10.842Z,70.40
2023-02-23T06:21:39.529Z,71.80
2023-02-23T06:24:09.231Z,82.60
2023-02-23T06:26:38.258Z,77.50
2023-02-23T06:29:08.622Z,90.40
2023-02-23T06:31:37.391Z,88.50
2023-02-23T06:34:06.044Z,97.40
2023-02-23T06:36:35.147Z,92.00
2023-02-23T06:39:04.372Z,92.50
2023-02-23T06:41:33.771Z,85.00
2023-02-23T06:44:03.113Z,71.20
2023-02-23T06:46:33.717Z,81.00
2023-02-23T06:49:02.609Z,74.60
2023-02-23T06:51:31.613Z,76.10
2023-02-23T06:54:00.537Z,74.20
2023-02-23T06:56:29.161Z,75.90
2023-02-23T06:58:58.386Z,84.10
2023-02-23T07:01:27.479Z,83.60
2023-02-23T07:03:56.245Z,70.70
2023-02-23T07:06:25.436Z,64.80
2023-02-23T07:08:58.260Z,70.10
2023-02-23T07:11:26.932Z,70.80
2023-02-23T07:14:01.764Z,70.90
2023-02-23T07:16:31.464Z,85.80
2023-02-23T07:19:00.144Z,86.20
2023-02-23T07:21:29.078Z,69.00
2023-02-23T07:23:58.330Z,71.70
2023-02-23T07:26:28.009Z,68.80
2023-02-23T07:28:56.624Z,71.90
2023-02-23T07:31:26.964Z,71.50
2023-02-23T07:33:55.877Z,62.40
2023-02-23T07:36:25.182Z,62.90
2023-02-23T07:38:54.852Z,60.20
2023-02-23T07:41:24.226Z,65.00
2023-02-23T07:43:52.777Z,57.70
2023-02-23T07:46:22.659Z,66.30
2023-02-23T07:51:21.026Z,67.60
2023-02-23T07:53:50.306Z,65.20
2023-02-23T07:56:19.543Z,66.20
2023-02-23T07:58:48.352Z,71.40
2023-02-23T08:01:17.627Z,68.30
2023-02-23T08:06:20.678Z,59.90
2023-02-23T08:08:49.512Z,99.70
2023-02-23T08:11:18.442Z,65.70
2023-02-23T08:13:47.962Z,61.20
2023-02-23T08:16:18.931Z,72.30
2023-02-23T08:18:47.659Z,78.10
2023-02-23T08:21:16.952Z,69.60
2023-02-23T08:23:46.197Z,71.70
2023-02-23T08:26:14.864Z,83.50
2023-02-23T08:28:46.366Z,94.40
2023-02-23T08:31:19.030Z,125.10
2023-02-23T08:33:48.332Z,85.50
2023-02-23T08:36:17.221Z,85.30
2023-02-23T08:38:45.888Z,70.50
2023-02-23T08:41:15.515Z,66.10
2023-02-23T08:43:44.394Z,59.00
2023-02-23T08:46:13.495Z,65.90
2023-02-23T08:48:43.099Z,51.20
2023-02-23T08:51:11.890Z,71.20
2023-02-23T08:53:41.878Z,63.20
2023-02-23T08:56:16.057Z,55.50
2023-02-23T08:58:59.746Z,62.80
2023-02-23T09:01:37.502Z,54.00
2023-02-23T09:04:07.195Z,54.80
2023-02-23T09:09:06.247Z,53.90
2023-02-23T09:11:35.022Z,57.60
2023-02-23T09:14:04.264Z,54.40
2023-02-23T09:16:34.107Z,55.70
2023-02-23T09:19:04.048Z,54.80
2023-02-23T09:21:34.819Z,51.10
2023-02-23T09:26:33.735Z,50.90
2023-02-23T09:31:32.486Z,49.30
2023-02-23T09:34:02.211Z,51.10
2023-02-23T09:36:31.963Z,54.40
2023-02-23T09:39:01.135Z,49.30
2023-02-23T09:42:04.171Z,52.60
2023-02-23T09:44:58.113Z,43.20
2023-02-23T09:47:52.511Z,41.40
2023-02-23T09:50:24.000Z,67.30
2023-02-23T09:53:04.913Z,43.80
2023-02-23T09:55:34.191Z,47.00
2023-02-23T09:58:09.222Z,43.70
2023-02-23T10:00:44.652Z,50.80
2023-02-23T10:03:28.756Z,45.10
2023-02-23T10:06:09.352Z,50.80
2023-02-23T10:11:42.231Z,44.80
2023-02-23T10:14:23.053Z,36.90
2023-02-23T10:17:16.727Z,49.70
2023-02-23T10:19:56.953Z,51.30
2023-02-23T10:22:26.876Z,50.70
2023-02-23T10:25:10.275Z,45.70
2023-02-23T10:27:45.639Z,58.50
2023-02-23T10:30:40.586Z,59.00
2023-02-23T10:33:29.005Z,103.90
2023-02-23T10:36:13.312Z,88.30
2023-02-23T10:38:42.718Z,26.30
2023-02-23T10:41:14.932Z,18.90
2023-02-23T10:43:43.989Z,15.00
2023-02-23T10:46:22.887Z,18.00
2023-02-23T10:48:56.005Z,24.40
2023-02-23T10:51:34.972Z,17.20
2023-02-23T10:54:36.457Z,19.80
2023-02-23T10:57:08.182Z,17.10
2023-02-23T10:59:37.222Z,20.40
2023-02-23T11:02:25.982Z,22.10
2023-02-23T11:04:57.868Z,18.10
2023-02-23T11:07:32.450Z,19.30
2023-02-23T11:10:26.234Z,29.30
2023-02-23T11:12:55.564Z,15.60
2023-02-23T11:15:49.913Z,14.40
2023-02-23T11:18:24.324Z,13.70
2023-02-23T11:20:55.046Z,14.10
2023-02-23T11:23:31.842Z,15.90
2023-02-23T11:26:03.896Z,14.30
2023-02-23T11:28:36.626Z,28.80
2023-02-23T11:31:26.648Z,29.60
2023-02-23T11:33:57.716Z,27.00
2023-02-23T11:36:43.501Z,50.70
2023-02-23T11:39:25.062Z,32.30
2023-02-23T11:42:15.931Z,37.20
2023-02-23T11:44:50.893Z,54.10
2023-02-23T11:47:23.211Z,36.90
2023-02-23T11:49:52.510Z,68.80
2023-02-23T11:52:23.987Z,68.00
2023-02-23T11:55:02.280Z,32.10
2023-02-23T11:57:34.930Z,31.80
2023-02-23T12:00:21.668Z,19.70
2023-02-23T12:02:55.828Z,13.30
2023-02-23T12:05:30.169Z,15.30
2023-02-23T12:08:03.063Z,18.50
2023-02-23T12:10:51.166Z,27.60
2023-02-23T12:13:39.925Z,16.60
2023-02-23T12:16:25.445Z,23.50
2023-02-23T12:19:00.497Z,15.70
2023-02-23T12:21:47.060Z,21.70
2023-02-23T12:24:36.146Z,35.00
2023-02-23T12:27:14.013Z,26.30
2023-02-23T12:30:17.132Z,20.80
2023-02-23T12:33:12.366Z,26.30
2023-02-23T12:36:21.430Z,26.20
2023-02-23T12:39:34.484Z,39.70
2023-02-23T12:42:40.272Z,20.60
2023-02-23T12:45:27.229Z,19.70
2023-02-23T12:48:30.067Z,38.80
2023-02-23T12:51:02.771Z,29.20
2023-02-23T12:53:39.990Z,30.00
2023-02-23T12:56:33.942Z,30.90
2023-02-23T12:59:19.524Z,24.40
2023-02-23T13:02:18.950Z,26.70
2023-02-23T13:05:18.568Z,26.00
2023-02-23T13:07:57.137Z,25.70
2023-02-23T13:10:50.284Z,32.10
2023-02-23T13:13:42.807Z,16.50
2023-02-23T13:16:34.590Z,26.10
2023-02-23T13:19:22.036Z,25.40
2023-02-23T13:22:17.148Z,36.90
2023-02-23T13:24:49.774Z,30.50
2023-02-23T13:27:36.493Z,25.00
2023-02-23T13:30:09.743Z,24.80
2023-02-23T13:32:40.082Z,30.00
2023-02-23T13:35:17.288Z,29.60
2023-02-23T13:37:53.902Z,32.70
2023-02-23T13:40:51.249Z,19.10
2023-02-23T13:43:43.507Z,27.00
2023-02-23T13:46:27.106Z,19.40
2023-02-23T13:49:28.752Z,26.40
2023-02-23T13:52:11.402Z,29.20
2023-02-23T13:54:57.378Z,28.90
2023-02-23T13:57:28.952Z,20.90
2023-02-23T13:59:58.783Z,26.40
2023-02-23T14:02:39.913Z,22.90
2023-02-23T14:05:19.986Z,26.40
2023-02-23T14:07:54.926Z,34.90
2023-02-23T14:10:30.145Z,26.60
2023-02-23T14:13:25.356Z,20.60
2023-02-23T14:16:15.981Z,22.90
2023-02-23T14:18:58.317Z,32.00
2023-02-23T14:21:33.790Z,31.60
2023-02-23T14:24:27.516Z,38.00
2023-02-23T14:27:42.240Z,22.30
2023-02-23T14:30:11.773Z,24.40
2023-02-23T14:32:46.669Z,38.00
2023-02-23T14:35:36.936Z,54.10
2023-02-23T14:38:13.952Z,50.10
2023-02-23T14:40:49.330Z,64.80
2023-02-23T14:43:51.740Z,74.10
2023-02-23T14:46:24.071Z,41.60
2023-02-23T14:49:19.531Z,36.10
2023-02-23T14:52:04.820Z,43.90
2023-02-23T14:54:35.078Z,36.20
2023-02-23T14:57:26.783Z,32.70
2023-02-23T15:00:02.158Z,38.80
2023-02-23T15:02:31.880Z,45.20
2023-02-23T15:05:15.490Z,43.70
2023-02-23T15:07:46.126Z,48.50
2023-02-23T15:10:28.507Z,45.80
2023-02-23T15:12:58.175Z,47.20
2023-02-23T15:15:28.076Z,33.00
2023-02-23T15:18:01.501Z,43.70
2023-02-23T15:23:05.138Z,64.70
2023-02-23T15:25:40.120Z,41.50
2023-02-23T15:28:21.335Z,28.60
2023-02-23T15:30:51.916Z,49.90
2023-02-23T15:33:29.060Z,61.10
2023-02-23T15:36:16.111Z,62.80
2023-02-23T15:38:51.761Z,50.80
2023-02-23T15:41:38.609Z,43.10
2023-02-23T15:44:15.951Z,34.10
2023-02-23T15:46:48.903Z,31.70
2023-02-23T15:49:20.780Z,39.20
2023-02-23T15:51:53.473Z,30.20
2023-02-23T15:54:28.479Z,32.60
2023-02-23T15:57:02.686Z,32.10
2023-02-23T15:59:37.152Z,34.70
2023-02-23T16:02:17.036Z,81.40
2023-02-23T16:04:54.330Z,75.10
2023-02-23T16:07:26.337Z,65.20
2023-02-23T16:10:04.649Z,48.40
2023-02-23T16:12:38.830Z,144.30
2023-02-23T16:15:27.588Z,52.60
2023-02-23T16:18:03.876Z,195.20
2023-02-23T16:20:47.100Z,58.90
2023-02-23T16:23:42.263Z,51.20
2023-02-23T16:26:18.607Z,58.40
2023-02-23T16:28:47.944Z,58.00
2023-02-23T16:31:26.409Z,64.50
2023-02-23T16:33:57.393Z,114.50
2023-02-23T16:36:40.105Z,85.10
2023-02-23T16:39:13.455Z,73.30
2023-02-23T16:41:43.024Z,64.30
2023-02-23T16:44:16.698Z,96.00
2023-02-23T16:46:54.548Z,58.00
2023-02-23T16:49:23.740Z,69.80
2023-02-23T16:51:52.502Z,109.40
2023-02-23T16:54:21.449Z,106.20
2023-02-23T16:56:55.658Z,110.50
2023-02-23T16:59:25.062Z,94.50
2023-02-23T17:01:54.542Z,113.30
2023-02-23T17:04:24.072Z,110.10
2023-02-23T17:06:58.081Z,84.40
2023-02-23T17:09:27.760Z,70.00
2023-02-23T17:11:58.148Z,59.70
2023-02-23T17:17:01.303Z,187.30
2023-02-23T17:19:30.381Z,138.30
2023-02-23T17:21:59.334Z,146.90
2023-02-23T17:24:28.282Z,94.30
2023-02-23T17:26:57.036Z,93.20
2023-02-23T17:29:25.969Z,96.50
2023-02-23T17:31:55.939Z,77.70
2023-02-23T17:34:26.735Z,68.20
2023-02-23T17:36:56.078Z,80.00
2023-02-23T17:39:28.556Z,73.90
2023-02-23T17:41:58.174Z,80.00
2023-02-23T17:44:26.664Z,68.40
2023-02-23T17:46:55.312Z,61.80
2023-02-23T17:49:25.755Z,89.90
2023-02-23T17:54:22.986Z,103.30
2023-02-23T17:56:53.033Z,67.70
2023-02-23T17:59:21.935Z,59.00
2023-02-23T18:01:50.965Z,72.80
2023-02-23T18:04:31.507Z,70.10
2023-02-23T18:07:17.180Z,68.20
2023-02-23T18:10:11.245Z,58.10
2023-02-23T18:12:59.690Z,45.60
2023-02-23T18:15:46.065Z,49.10
2023-02-23T18:18:48.599Z,43.40
2023-02-23T18:21:33.858Z,44.30
2023-02-23T18:24:23.600Z,43.30
2023-02-23T18:27:20.638Z,39.60
2023-02-23T18:30:13.593Z,58.90
2023-02-23T18:33:13.853Z,68.00
2023-02-23T18:36:09.017Z,86.00
2023-02-23T18:39:06.664Z,108.40
2023-02-23T18:42:00.844Z,91.30
2023-02-23T18:44:37.234Z,76.00
2023-02-23T18:47:06.295Z,96.40
2023-02-23T18:49:35.206Z,79.30
2023-02-23T18:52:09.632Z,79.60
2023-02-23T18:54:40.494Z,91.50
2023-02-23T18:57:09.184Z,62.70
2023-02-23T18:59:37.956Z,58.50
2023-02-23T19:02:07.407Z,64.60
2023-02-23T19:04:36.796Z,69.00
2023-02-23T19:07:05.871Z,78.50
2023-02-23T19:09:34.749Z,65.90
2023-02-23T19:12:03.991Z,52.70
2023-02-23T19:14:48.262Z,51.20
2023-02-23T19:17:19.618Z,58.20
2023-02-23T19:19:51.752Z,55.80
2023-02-23T19:22:21.504Z,67.00
2023-02-23T19:24:50.251Z,60.40
2023-02-23T19:27:19.583Z,61.60
2023-02-23T19:29:48.909Z,53.20
2023-02-23T19:32:18.540Z,65.70
2023-02-23T19:34:48.133Z,70.80
2023-02-23T19:37:17.048Z,108.70
2023-02-23T19:39:46.767Z,110.30
2023-02-23T19:42:19.054Z,72.90
2023-02-23T19:44:52.306Z,71.50
2023-02-23T19:47:22.043Z,68.00
2023-02-23T19:49:51.035Z,59.60
2023-02-23T19:52:19.651Z,67.20
2023-02-23T19:54:48.545Z,55.40
2023-02-23T19:57:17.448Z,62.20
2023-02-23T19:59:46.201Z,56.30
2023-02-23T20:02:16.873Z,59.70
2023-02-23T20:04:52.480Z,58.30
2023-02-23T20:07:21.508Z,57.10
2023-02-23T20:09:50.261Z,55.00
2023-02-23T20:12:19.232Z,57.80
2023-02-23T20:14:50.325Z,61.60
2023-02-23T20:17:19.181Z,60.90
2023-02-23T20:19:48.281Z,64.50
2023-02-23T20:22:17.392Z,66.30
2023-02-23T20:24:46.471Z,71.00
2023-02-23T20:27:15.188Z,65.80
2023-02-23T20:29:44.530Z,68.10
2023-02-23T20:32:13.565Z,69.20
2023-02-23T20:34:45.828Z,65.70
2023-02-23T20:37:14.643Z,65.70
2023-02-23T20:39:43.602Z,84.40
2023-02-23T20:42:12.728Z,71.00
2023-02-23T20:44:41.672Z,67.90
2023-02-23T20:47:11.785Z,58.10
2023-02-23T20:52:14.134Z,61.70
2023-02-23T20:54:42.960Z,58.40
2023-02-23T20:57:14.065Z,55.00
2023-02-23T20:59:46.035Z,66.50
2023-02-23T21:02:15.610Z,71.70
2023-02-23T21:04:45.280Z,79.40
2023-02-23T21:07:14.438Z,75.30
2023-02-23T21:09:43.758Z,73.00
2023-02-23T21:12:14.179Z,69.30
2023-02-23T21:17:11.497Z,69.70
2023-02-23T21:19:40.968Z,61.40
2023-02-23T21:22:09.865Z,45.80
2023-02-23T21:24:41.236Z,63.90
2023-02-23T21:27:13.730Z,64.20
2023-02-23T21:29:46.232Z,63.00
2023-02-23T21:34:46.374Z,63.20
2023-02-23T21:37:16.109Z,61.30
2023-02-23T21:39:47.349Z,64.50
2023-02-23T21:42:16.221Z,56.70
2023-02-23T21:44:45.990Z,57.90
2023-02-23T21:47:15.975Z,60.20
2023-02-23T21:49:49.607Z,63.00
2023-02-23T21:52:18.815Z,71.40
2023-02-23T21:54:53.105Z,55.40
2023-02-23T21:57:23.428Z,57.70
2023-02-23T21:59:53.265Z,60.00
2023-02-23T22:02:21.770Z,60.50
2023-02-23T22:04:51.397Z,54.30
2023-02-23T22:07:22.034Z,59.30
2023-02-23T22:09:50.882Z,57.20
2023-02-23T22:12:19.994Z,56.80
2023-02-23T22:14:49.031Z,55.80
2023-02-23T22:17:19.539Z,56.10
2023-02-23T22:19:51.238Z,60.90
2023-02-23T22:22:20.898Z,62.30
2023-02-23T22:24:50.394Z,63.90
2023-02-23T22:27:19.323Z,63.70
2023-02-23T22:29:48.263Z,57.20
2023-02-23T22:32:17.804Z,62.20
2023-02-23T22:34:46.922Z,190.80
2023-02-23T22:37:15.879Z,208.50
2023-02-23T22:39:45.098Z,97.70
2023-02-23T22:42:14.007Z,70.40
2023-02-23T22:44:42.973Z,69.10
2023-02-23T22:47:13.828Z,60.50
2023-02-23T22:49:42.545Z,61.30
2023-02-23T22:52:13.497Z,74.40
2023-02-23T22:54:46.013Z,87.40
2023-02-23T22:57:15.183Z,79.30
2023-02-23T22:59:55.206Z,48.50
2023-02-23T23:02:23.804Z,62.90
2023-02-23T23:04:55.019Z,59.30
2023-02-23T23:07:26.492Z,52.70
2023-02-23T23:09:55.603Z,56.30
2023-02-23T23:12:28.444Z,62.90
2023-02-23T23:15:01.552Z,56.10
2023-02-23T23:17:31.884Z,52.70
2023-02-23T23:20:01.280Z,55.30
2023-02-23T23:22:29.800Z,53.50
2023-02-23T23:24:58.959Z,58.20
2023-02-23T23:27:27.824Z,60.20
2023-02-23T23:29:56.433Z,52.50
2023-02-23T23:32:28.033Z,56.30
2023-02-23T23:34:58.801Z,54.30
2023-02-23T23:37:30.272Z,65.20
2023-02-23T23:40:14.354Z,57.50
2023-02-23T23:42:46.598Z,56.70
2023-02-23T23:45:17.822Z,64.70
2023-02-23T23:47:47.750Z,58.00
2023-02-23T23:50:17.550Z,58.10
2023-02-23T23:52:46.186Z,68.20
2023-02-23T23:55:15.868Z,73.60
2023-02-23T23:57:44.654Z,72.80
